Home > Products > Valid Products > TAF

000
FTUS43 KGRB 251131
TAFGRB
TAF
KGRB 251131Z 2512/2612 06005KT 3SM -SHRA BR SCT015 OVC040
      TEMPO 2512/2513 1SM SHRA BKN015
     FM251300 16013KT 3SM BR VCSH SCT015 OVC040
      TEMPO 2513/2517 1SM SHRA BKN015
     FM251800 23017G28KT P6SM BKN035
     FM260100 21010KT P6SM VCSH BKN035=



000
FTUS43 KGRB 251131
TAFGRB
TAF
KGRB 251131Z 2512/2612 06005KT 3SM -SHRA BR SCT015 OVC040
      TEMPO 2512/2513 1SM SHRA BKN015
     FM251300 16013KT 3SM BR VCSH SCT015 OVC040
      TEMPO 2513/2517 1SM SHRA BKN015
     FM251800 23017G28KT P6SM BKN035
     FM260100 21010KT P6SM VCSH BKN035=



000
FTUS43 KGRB 251043 AAB
TAFGRB
TAF AMD
KGRB 251043Z 2511/2606 10008KT 3SM -SHRA BR SCT005 OVC015
      WS012/21040KT
      TEMPO 2511/2512 1SM -SHRA BR BKN005
     FM251200 16013KT 5SM BR VCSH BKN006 OVC010
      TEMPO 2512/2516 3SM SHRA BKN015
     FM251800 23017G28KT P6SM BKN025
     FM260100 21010KT P6SM VCSH BKN035=



000
FTUS43 KGRB 251043 AAB
TAFGRB
TAF AMD
KGRB 251043Z 2511/2606 10008KT 3SM -SHRA BR SCT005 OVC015
      WS012/21040KT
      TEMPO 2511/2512 1SM -SHRA BR BKN005
     FM251200 16013KT 5SM BR VCSH BKN006 OVC010
      TEMPO 2512/2516 3SM SHRA BKN015
     FM251800 23017G28KT P6SM BKN025
     FM260100 21010KT P6SM VCSH BKN035=



000
FTUS43 KGRB 251043 AAB
TAFGRB
TAF AMD
KGRB 251043Z 2511/2606 10008KT 3SM -SHRA BR SCT005 OVC015
      WS012/21040KT
      TEMPO 2511/2512 1SM -SHRA BR BKN005
     FM251200 16013KT 5SM BR VCSH BKN006 OVC010
      TEMPO 2512/2516 3SM SHRA BKN015
     FM251800 23017G28KT P6SM BKN025
     FM260100 21010KT P6SM VCSH BKN035=



000
FTUS43 KGRB 250520
TAFGRB
TAF
KGRB 250520Z 2506/2606 13008KT 4SM -SHRA BR BKN005 OVC010
      WS012/21040KT
     FM251200 16013KT 5SM BR VCSH BKN006 OVC010
      TEMPO 2512/2516 3SM SHRA BKN015
     FM251800 23017G28KT P6SM BKN025
     FM260100 21010KT P6SM VCSH BKN035=



000
FTUS43 KGRB 250520
TAFGRB
TAF
KGRB 250520Z 2506/2606 13008KT 4SM -SHRA BR BKN005 OVC010
      WS012/21040KT
     FM251200 16013KT 5SM BR VCSH BKN006 OVC010
      TEMPO 2512/2516 3SM SHRA BKN015
     FM251800 23017G28KT P6SM BKN025
     FM260100 21010KT P6SM VCSH BKN035=



000
FTUS43 KGRB 250350 AAA
TAFGRB
TAF AMD
KGRB 250350Z 2504/2524 09008KT 6SM -SHRA BR BKN006 OVC012
      WS015/16035KT
      TEMPO 2504/2506 3SM SHRA BR
     FM250600 16008KT 3SM -SHRA BR BKN005 OVC010 WS012/21040KT
     FM251200 16013KT 5SM BR VCSH BKN006 OVC010
      TEMPO 2514/2518 3SM SHRA BKN015
     FM252000 24017G28KT P6SM BKN025=



000
FTUS43 KGRB 250350 AAA
TAFGRB
TAF AMD
KGRB 250350Z 2504/2524 09008KT 6SM -SHRA BR BKN006 OVC012
      WS015/16035KT
      TEMPO 2504/2506 3SM SHRA BR
     FM250600 16008KT 3SM -SHRA BR BKN005 OVC010 WS012/21040KT
     FM251200 16013KT 5SM BR VCSH BKN006 OVC010
      TEMPO 2514/2518 3SM SHRA BKN015
     FM252000 24017G28KT P6SM BKN025=



000
FTUS43 KGRB 242345
TAFGRB
TAF
KGRB 242345Z 2500/2524 11011KT 3SM RA BR BKN015 OVC025
      TEMPO 2500/2502 1 1/2SM RA BR BKN008
     FM250200 11010KT 3SM RA BR BKN007 OVC012 WS015/16035KT
      TEMPO 2502/2504 1 1/2SM RA BR
     FM250600 16008KT 3SM -SHRA BR BKN005 OVC010 WS012/21040KT
     FM251200 16013KT 5SM BR VCSH BKN006 OVC010
      TEMPO 2514/2518 3SM SHRA BKN015
     FM252000 24017G28KT P6SM BKN025=



000
FTUS43 KGRB 242345
TAFGRB
TAF
KGRB 242345Z 2500/2524 11011KT 3SM RA BR BKN015 OVC025
      TEMPO 2500/2502 1 1/2SM RA BR BKN008
     FM250200 11010KT 3SM RA BR BKN007 OVC012 WS015/16035KT
      TEMPO 2502/2504 1 1/2SM RA BR
     FM250600 16008KT 3SM -SHRA BR BKN005 OVC010 WS012/21040KT
     FM251200 16013KT 5SM BR VCSH BKN006 OVC010
      TEMPO 2514/2518 3SM SHRA BKN015
     FM252000 24017G28KT P6SM BKN025=



000
FTUS43 KGRB 242345
TAFGRB
TAF
KGRB 242345Z 2500/2524 11011KT 3SM RA BR BKN015 OVC025
      TEMPO 2500/2502 1 1/2SM RA BR BKN008
     FM250200 11010KT 3SM RA BR BKN007 OVC012 WS015/16035KT
      TEMPO 2502/2504 1 1/2SM RA BR
     FM250600 16008KT 3SM -SHRA BR BKN005 OVC010 WS012/21040KT
     FM251200 16013KT 5SM BR VCSH BKN006 OVC010
      TEMPO 2514/2518 3SM SHRA BKN015
     FM252000 24017G28KT P6SM BKN025=



000
FTUS43 KGRB 242345
TAFGRB
TAF
KGRB 242345Z 2500/2524 11011KT 3SM RA BR BKN015 OVC025
      TEMPO 2500/2502 1 1/2SM RA BR BKN008
     FM250200 11010KT 3SM RA BR BKN007 OVC012 WS015/16035KT
      TEMPO 2502/2504 1 1/2SM RA BR
     FM250600 16008KT 3SM -SHRA BR BKN005 OVC010 WS012/21040KT
     FM251200 16013KT 5SM BR VCSH BKN006 OVC010
      TEMPO 2514/2518 3SM SHRA BKN015
     FM252000 24017G28KT P6SM BKN025=



000
FTUS43 KGRB 241720
TAFGRB
TAF
KGRB 241720Z 2418/2518 18010G16KT P6SM -RA BKN080
     FM242100 13008G14KT P6SM -SHRA SCT025 OVC050
      TEMPO 2421/2424 5SM -RA BR OVC025
     FM250000 09010KT 3SM RA BR OVC015
     FM250200 08009KT 3SM RA BR BKN007 WS012/16040KT
     FM250900 15007KT 2SM -RADZ BR BKN004 WS012/19045KT
     FM251600 16013G23KT P6SM BKN015=



000
FTUS43 KGRB 241720
TAFGRB
TAF
KGRB 241720Z 2418/2518 18010G16KT P6SM -RA BKN080
     FM242100 13008G14KT P6SM -SHRA SCT025 OVC050
      TEMPO 2421/2424 5SM -RA BR OVC025
     FM250000 09010KT 3SM RA BR OVC015
     FM250200 08009KT 3SM RA BR BKN007 WS012/16040KT
     FM250900 15007KT 2SM -RADZ BR BKN004 WS012/19045KT
     FM251600 16013G23KT P6SM BKN015=



000
FTUS43 KGRB 241124
TAFGRB
TAF
KGRB 241124Z 2412/2512 18004KT P6SM BKN090
     FM241500 18010G17KT P6SM BKN070
     FM242100 12010KT P6SM -SHRA SCT030 OVC050
      TEMPO 2422/2424 5SM -RA BR OVC025
     FM250000 11010KT 3SM RA BR OVC015
     FM250400 12010KT 3SM RA BR BKN008 OVC015 WS013/17035KT=



000
FTUS43 KGRB 241124
TAFGRB
TAF
KGRB 241124Z 2412/2512 18004KT P6SM BKN090
     FM241500 18010G17KT P6SM BKN070
     FM242100 12010KT P6SM -SHRA SCT030 OVC050
      TEMPO 2422/2424 5SM -RA BR OVC025
     FM250000 11010KT 3SM RA BR OVC015
     FM250400 12010KT 3SM RA BR BKN008 OVC015 WS013/17035KT=



000
FTUS43 KGRB 241124
TAFGRB
TAF
KGRB 241124Z 2412/2512 18004KT P6SM BKN090
     FM241500 18010G17KT P6SM BKN070
     FM242100 12010KT P6SM -SHRA SCT030 OVC050
      TEMPO 2422/2424 5SM -RA BR OVC025
     FM250000 11010KT 3SM RA BR OVC015
     FM250400 12010KT 3SM RA BR BKN008 OVC015 WS013/17035KT=



000
FTUS43 KGRB 241124
TAFGRB
TAF
KGRB 241124Z 2412/2512 18004KT P6SM BKN090
     FM241500 18010G17KT P6SM BKN070
     FM242100 12010KT P6SM -SHRA SCT030 OVC050
      TEMPO 2422/2424 5SM -RA BR OVC025
     FM250000 11010KT 3SM RA BR OVC015
     FM250400 12010KT 3SM RA BR BKN008 OVC015 WS013/17035KT=



000
FTUS43 KGRB 240520
TAFGRB
TAF
KGRB 240520Z 2406/2506 18004KT P6SM BKN090
     FM241500 18010G17KT P6SM BKN070
     FM242100 12010KT P6SM -SHRA SCT030 OVC050
      TEMPO 2422/2424 5SM -RA BR OVC025
     FM250000 11010KT 3SM RA BR OVC015
     FM250400 12010KT 3SM RA BR BKN008 OVC015 WS013/17035KT=



000
FTUS43 KGRB 240520
TAFGRB
TAF
KGRB 240520Z 2406/2506 18004KT P6SM BKN090
     FM241500 18010G17KT P6SM BKN070
     FM242100 12010KT P6SM -SHRA SCT030 OVC050
      TEMPO 2422/2424 5SM -RA BR OVC025
     FM250000 11010KT 3SM RA BR OVC015
     FM250400 12010KT 3SM RA BR BKN008 OVC015 WS013/17035KT=



000
FTUS43 KGRB 240520
TAFGRB
TAF
KGRB 240520Z 2406/2506 18004KT P6SM BKN090
     FM241500 18010G17KT P6SM BKN070
     FM242100 12010KT P6SM -SHRA SCT030 OVC050
      TEMPO 2422/2424 5SM -RA BR OVC025
     FM250000 11010KT 3SM RA BR OVC015
     FM250400 12010KT 3SM RA BR BKN008 OVC015 WS013/17035KT=



000
FTUS43 KGRB 232320
TAFGRB
TAF
KGRB 232320Z 2400/2424 20008KT P6SM BKN100
     FM240200 18004KT P6SM BKN090
     FM241500 17010G17KT P6SM BKN070
     FM242200 12011KT P6SM -SHRA SCT030 OVC050=



000
FTUS43 KGRB 232320
TAFGRB
TAF
KGRB 232320Z 2400/2424 20008KT P6SM BKN100
     FM240200 18004KT P6SM BKN090
     FM241500 17010G17KT P6SM BKN070
     FM242200 12011KT P6SM -SHRA SCT030 OVC050=



000
FTUS43 KGRB 231736
TAFGRB
TAF
KGRB 231736Z 2318/2418 21009G14KT P6SM SCT120
     FM240100 18004KT P6SM BKN100
     FM241500 19011G18KT P6SM BKN060=



000
FTUS43 KGRB 231736
TAFGRB
TAF
KGRB 231736Z 2318/2418 21009G14KT P6SM SCT120
     FM240100 18004KT P6SM BKN100
     FM241500 19011G18KT P6SM BKN060=



000
FTUS43 KGRB 231131
TAFGRB
TAF
KGRB 231131Z 2312/2412 19004KT P6SM SKC
     FM231500 21009KT P6SM SCT200
     FM232100 20010KT P6SM SCT060 BKN120
     FM240100 19004KT P6SM SCT060 BKN100=



000
FTUS43 KGRB 231131
TAFGRB
TAF
KGRB 231131Z 2312/2412 19004KT P6SM SKC
     FM231500 21009KT P6SM SCT200
     FM232100 20010KT P6SM SCT060 BKN120
     FM240100 19004KT P6SM SCT060 BKN100=



000
FTUS43 KGRB 231131
TAFGRB
TAF
KGRB 231131Z 2312/2412 19004KT P6SM SKC
     FM231500 21009KT P6SM SCT200
     FM232100 20010KT P6SM SCT060 BKN120
     FM240100 19004KT P6SM SCT060 BKN100=



000
FTUS43 KGRB 231131
TAFGRB
TAF
KGRB 231131Z 2312/2412 19004KT P6SM SKC
     FM231500 21009KT P6SM SCT200
     FM232100 20010KT P6SM SCT060 BKN120
     FM240100 19004KT P6SM SCT060 BKN100=



000
FTUS43 KGRB 230520
TAFGRB
TAF
KGRB 230520Z 2306/2406 19004KT P6SM BKN250
     FM231400 21009KT P6SM BKN200
     FM232100 20010KT P6SM SCT060 BKN120
     FM240100 19004KT P6SM SCT060 BKN100=



000
FTUS43 KGRB 230520
TAFGRB
TAF
KGRB 230520Z 2306/2406 19004KT P6SM BKN250
     FM231400 21009KT P6SM BKN200
     FM232100 20010KT P6SM SCT060 BKN120
     FM240100 19004KT P6SM SCT060 BKN100=



000
FTUS43 KGRB 222320
TAFGRB
TAF
KGRB 222320Z 2300/2324 13011KT P6SM SCT250
     FM230100 19003KT P6SM BKN250
     FM231400 21009KT P6SM BKN200
     FM232000 20010KT P6SM SCT060 BKN100=



000
FTUS43 KGRB 222320
TAFGRB
TAF
KGRB 222320Z 2300/2324 13011KT P6SM SCT250
     FM230100 19003KT P6SM BKN250
     FM231400 21009KT P6SM BKN200
     FM232000 20010KT P6SM SCT060 BKN100=



000
FTUS43 KGRB 222320
TAFGRB
TAF
KGRB 222320Z 2300/2324 13011KT P6SM SCT250
     FM230100 19003KT P6SM BKN250
     FM231400 21009KT P6SM BKN200
     FM232000 20010KT P6SM SCT060 BKN100=



000
FTUS43 KGRB 222320
TAFGRB
TAF
KGRB 222320Z 2300/2324 13011KT P6SM SCT250
     FM230100 19003KT P6SM BKN250
     FM231400 21009KT P6SM BKN200
     FM232000 20010KT P6SM SCT060 BKN100=



000
FTUS43 KGRB 221724
TAFGRB
TAF
KGRB 221724Z 2218/2318 26005KT P6SM SKC
     FM222200 15007KT P6SM SKC
     FM230100 18003KT P6SM FEW250
     FM230700 20003KT P6SM SCT250
     FM231400 21008KT P6SM BKN200=



000
FTUS43 KGRB 221724
TAFGRB
TAF
KGRB 221724Z 2218/2318 26005KT P6SM SKC
     FM222200 15007KT P6SM SKC
     FM230100 18003KT P6SM FEW250
     FM230700 20003KT P6SM SCT250
     FM231400 21008KT P6SM BKN200=



000
FTUS43 KGRB 221724
TAFGRB
TAF
KGRB 221724Z 2218/2318 26005KT P6SM SKC
     FM222200 15007KT P6SM SKC
     FM230100 18003KT P6SM FEW250
     FM230700 20003KT P6SM SCT250
     FM231400 21008KT P6SM BKN200=



000
FTUS43 KGRB 221724
TAFGRB
TAF
KGRB 221724Z 2218/2318 26005KT P6SM SKC
     FM222200 15007KT P6SM SKC
     FM230100 18003KT P6SM FEW250
     FM230700 20003KT P6SM SCT250
     FM231400 21008KT P6SM BKN200=



    US Dept of Commerce
    National Oceanic and Atmospheric Administration
    National Weather Service
    1325 East West Highway
    Silver Spring, MD 20910
    Page Author: NWS Internet Services Team
Disclaimer
Information Quality
Credits
Glossary
Privacy Policy
Freedom of Information Act (FOIA)
About Us
Career Opportunities